Dados meteorológicos de METAR da aviação        EIME Baldonnel Military Airfield
Temperatura
14°C Temperatura
12°C Ponto de orvalho
88% Umidade



Vento
7 KM/H
5 MPH
2 M/S
4 NÓS



280°
O
Condições atuais

Mostly Sunny Principalmente ensolarado
Pressão 1029 (hPa) - 30.39 (inHg)
Visibilidade 30 (milha) - 48 (km)
Aeroporto
Código do aeroporto EIME

Localização: Baldonnel Military Airfield
Distância: 62 (km)

Metar:
METAR EIME 080730Z 28004KT 9999 FEW025 14/12 Q1029

Hora: 08-08-2022 08:30 IST